sensor_id;sensor_type;location;lat;lon;timestamp;pressure;altitude;pressure_sealevel;temperature;humidity
59987;BME280;46181;51.498;5.392;2022-11-04T00:04:16;100068.4;;;15.11;65.77539
59987;BME280;46181;51.498;5.392;2022-11-04T00:08:46;100070.6;;;15.13;65.70801
59987;BME280;46181;51.498;5.392;2022-11-04T00:13:15;100072.7;;;15.12;65.68555
59987;BME280;46181;51.498;5.392;2022-11-04T00:17:45;100079.4;;;15.06;65.66504
59987;BME280;46181;51.498;5.392;2022-11-04T00:22:15;100082.3;;;14.98;65.55176
59987;BME280;46181;51.498;5.392;2022-11-04T00:26:45;100086.9;;;14.88;65.52539
59987;BME280;46181;51.498;5.392;2022-11-04T00:31:16;100098.5;;;14.8;65.41211
59987;BME280;46181;51.498;5.392;2022-11-04T00:35:50;100092.2;;;14.69;65.17871
59987;BME280;46181;51.498;5.392;2022-11-04T00:40:17;100098.2;;;14.53;65.25879
59987;BME280;46181;51.498;5.392;2022-11-04T00:44:45;100102.9;;;14.43;65.33301
59987;BME280;46181;51.498;5.392;2022-11-04T00:49:15;100109.9;;;14.32;65.39648
59987;BME280;46181;51.498;5.392;2022-11-04T00:53:45;100116.7;;;14.23;65.46387
59987;BME280;46181;51.498;5.392;2022-11-04T00:58:15;100124.3;;;14.16;65.32715
59987;BME280;46181;51.498;5.392;2022-11-04T01:02:45;100128.9;;;14.07;65.3584
59987;BME280;46181;51.498;5.392;2022-11-04T01:07:15;100129.4;;;14.07;65.65332
59987;BME280;46181;51.498;5.392;2022-11-04T01:11:45;100129.2;;;14.08;65.49707
59987;BME280;46181;51.498;5.392;2022-11-04T01:16:17;100137.8;;;14;65.42773
59987;BME280;46181;51.498;5.392;2022-11-04T01:20:45;100147.1;;;13.99;65.54102
59987;BME280;46181;51.498;5.392;2022-11-04T01:25:16;100158.4;;;14.06;65.84473
59987;BME280;46181;51.498;5.392;2022-11-04T01:29:45;100155.6;;;14.18;65.79395
59987;BME280;46181;51.498;5.392;2022-11-04T01:34:17;100146.5;;;14.21;65.58398
59987;BME280;46181;51.498;5.392;2022-11-04T01:38:45;100142.4;;;14.14;65.3916
59987;BME280;46181;51.498;5.392;2022-11-04T01:43:21;100146.1;;;13.98;65.56152
59987;BME280;46181;51.498;5.392;2022-11-04T01:47:49;100151;;;13.89;65.58105
59987;BME280;46181;51.498;5.392;2022-11-04T01:52:17;100145.8;;;13.83;65.59473
59987;BME280;46181;51.498;5.392;2022-11-04T01:56:46;100152.1;;;13.75;65.59473
59987;BME280;46181;51.498;5.392;2022-11-04T02:01:16;100157.7;;;13.67;65.65039
59987;BME280;46181;51.498;5.392;2022-11-04T02:05:46;100155.2;;;13.58;65.68262
59987;BME280;46181;51.498;5.392;2022-11-04T02:10:16;100150.4;;;13.5;65.76074
59987;BME280;46181;51.498;5.392;2022-11-04T02:14:46;100152.2;;;13.49;65.60156
59987;BME280;46181;51.498;5.392;2022-11-04T02:19:38;100153.2;;;13.37;65.78711
59987;BME280;46181;51.498;5.392;2022-11-04T02:24:02;100154.7;;;13.24;66.03809
59987;BME280;46181;51.498;5.392;2022-11-04T02:28:37;100162;;;13.17;66.07227
59987;BME280;46181;51.498;5.392;2022-11-04T02:33:13;100164.3;;;13.06;66.25
59987;BME280;46181;51.498;5.392;2022-11-04T02:37:23;100173.6;;;13.07;66.08008
59987;BME280;46181;51.498;5.392;2022-11-04T02:41:50;100174.7;;;13.09;66.00488
59987;BME280;46181;51.498;5.392;2022-11-04T02:46:22;100176.1;;;13.03;66.06348
59987;BME280;46181;51.498;5.392;2022-11-04T02:50:48;100172.9;;;13;66.05957
59987;BME280;46181;51.498;5.392;2022-11-04T02:55:19;100177.1;;;12.97;66.05371
59987;BME280;46181;51.498;5.392;2022-11-04T02:59:48;100174.3;;;12.93;65.99316
59987;BME280;46181;51.498;5.392;2022-11-04T03:04:20;100169.1;;;12.88;65.99512
59987;BME280;46181;51.498;5.392;2022-11-04T03:08:48;100171.3;;;12.85;65.90137
59987;BME280;46181;51.498;5.392;2022-11-04T03:13:18;100176.2;;;12.8;65.91699
59987;BME280;46181;51.498;5.392;2022-11-04T03:17:51;100182;;;12.73;66.03027
59987;BME280;46181;51.498;5.392;2022-11-04T03:22:19;100177.1;;;12.72;65.92578
59987;BME280;46181;51.498;5.392;2022-11-04T03:26:48;100178.6;;;12.69;65.80859
59987;BME280;46181;51.498;5.392;2022-11-04T03:31:21;100176.3;;;12.61;65.89941
59987;BME280;46181;51.498;5.392;2022-11-04T03:35:45;100182.3;;;12.61;65.88672
59987;BME280;46181;51.498;5.392;2022-11-04T03:40:17;100190.1;;;12.57;65.81348
59987;BME280;46181;51.498;5.392;2022-11-04T03:44:45;100187.2;;;12.54;65.77637
59987;BME280;46181;51.498;5.392;2022-11-04T03:49:16;100187.8;;;12.48;65.77637
59987;BME280;46181;51.498;5.392;2022-11-04T03:53:46;100186.8;;;12.43;65.71289
59987;BME280;46181;51.498;5.392;2022-11-04T03:58:20;100183.9;;;12.36;65.73633
59987;BME280;46181;51.498;5.392;2022-11-04T04:03:05;100184.1;;;12.25;65.84375
59987;BME280;46181;51.498;5.392;2022-11-04T04:07:21;100181.9;;;12.23;65.77246
59987;BME280;46181;51.498;5.392;2022-11-04T04:11:50;100179.5;;;12.18;65.69922
59987;BME280;46181;51.498;5.392;2022-11-04T04:16:19;100188;;;12.15;65.65918
59987;BME280;46181;51.498;5.392;2022-11-04T04:20:46;100197.3;;;12.12;65.6543
59987;BME280;46181;51.498;5.392;2022-11-04T04:25:17;100202.3;;;12.09;65.60645
59987;BME280;46181;51.498;5.392;2022-11-04T04:29:46;100210.1;;;12.05;65.53418
59987;BME280;46181;51.498;5.392;2022-11-04T04:34:16;100214.5;;;11.99;65.5791
59987;BME280;46181;51.498;5.392;2022-11-04T04:38:49;100220.6;;;11.94;65.5498
59987;BME280;46181;51.498;5.392;2022-11-04T04:43:17;100225.8;;;11.94;65.54883
59987;BME280;46181;51.498;5.392;2022-11-04T04:47:50;100222.8;;;11.88;65.56348
59987;BME280;46181;51.498;5.392;2022-11-04T04:52:15;100221.3;;;11.89;65.55371
59987;BME280;46181;51.498;5.392;2022-11-04T04:56:45;100230;;;11.87;65.52734
59987;BME280;46181;51.498;5.392;2022-11-04T05:01:15;100233.3;;;11.91;65.69141
59987;BME280;46181;51.498;5.392;2022-11-04T05:05:45;100240;;;11.95;65.70801
59987;BME280;46181;51.498;5.392;2022-11-04T05:10:16;100239;;;11.98;65.65723
59987;BME280;46181;51.498;5.392;2022-11-04T05:14:45;100245.1;;;12.04;65.66699
59987;BME280;46181;51.498;5.392;2022-11-04T05:19:15;100250.7;;;12.13;65.69141
59987;BME280;46181;51.498;5.392;2022-11-04T05:23:45;100248.9;;;12.26;65.55273
59987;BME280;46181;51.498;5.392;2022-11-04T05:28:16;100259.8;;;12.36;65.38672
59987;BME280;46181;51.498;5.392;2022-11-04T05:32:45;100261.5;;;12.42;65.26074
59987;BME280;46181;51.498;5.392;2022-11-04T05:37:15;100269.9;;;12.45;65.0166
59987;BME280;46181;51.498;5.392;2022-11-04T05:41:45;100268.2;;;12.44;65.03809
59987;BME280;46181;51.498;5.392;2022-11-04T05:46:15;100271.5;;;12.49;65.0332
59987;BME280;46181;51.498;5.392;2022-11-04T05:50:45;100273.3;;;12.51;64.96973
59987;BME280;46181;51.498;5.392;2022-11-04T05:55:16;100279.7;;;12.55;64.89746
59987;BME280;46181;51.498;5.392;2022-11-04T05:59:45;100283.2;;;12.53;64.87012
59987;BME280;46181;51.498;5.392;2022-11-04T06:04:21;100292.7;;;12.44;64.80176
59987;BME280;46181;51.498;5.392;2022-11-04T06:08:45;100293;;;12.42;64.67578
59987;BME280;46181;51.498;5.392;2022-11-04T06:13:15;100300.5;;;12.35;64.73145
59987;BME280;46181;51.498;5.392;2022-11-04T06:17:45;100301.4;;;12.38;64.92773
59987;BME280;46181;51.498;5.392;2022-11-04T06:22:17;100302.7;;;12.41;64.80859
59987;BME280;46181;51.498;5.392;2022-11-04T06:26:45;100306.4;;;12.37;64.57715
59987;BME280;46181;51.498;5.392;2022-11-04T06:31:16;100304.2;;;12.24;64.50098
59987;BME280;46181;51.498;5.392;2022-11-04T06:35:46;100312.4;;;12.13;64.51855
59987;BME280;46181;51.498;5.392;2022-11-04T06:40:16;100322;;;12.02;64.53711
59987;BME280;46181;51.498;5.392;2022-11-04T06:44:45;100324.3;;;11.91;64.59961
59987;BME280;46181;51.498;5.392;2022-11-04T06:49:20;100322.3;;;11.82;64.77832
59987;BME280;46181;51.498;5.392;2022-11-04T06:53:45;100328.1;;;11.81;64.83203
59987;BME280;46181;51.498;5.392;2022-11-04T06:58:16;100335.9;;;11.83;65.07227
59987;BME280;46181;51.498;5.392;2022-11-04T07:02:46;100346.1;;;11.91;65.10547
59987;BME280;46181;51.498;5.392;2022-11-04T07:07:15;100345.7;;;12.05;65.26172
59987;BME280;46181;51.498;5.392;2022-11-04T07:11:46;100353.4;;;12.24;65.23535
59987;BME280;46181;51.498;5.392;2022-11-04T07:16:17;100360.5;;;12.47;65.1543
59987;BME280;46181;51.498;5.392;2022-11-04T07:20:46;100364.8;;;12.69;64.94922
59987;BME280;46181;51.498;5.392;2022-11-04T07:25:16;100367.1;;;12.9;64.7666
59987;BME280;46181;51.498;5.392;2022-11-04T07:29:46;100368.4;;;13.09;64.69434
59987;BME280;46181;51.498;5.392;2022-11-04T07:34:16;100369.7;;;13.25;64.47949
59987;BME280;46181;51.498;5.392;2022-11-04T07:38:46;100377.6;;;13.4;64.41211
59987;BME280;46181;51.498;5.392;2022-11-04T07:43:16;100379.9;;;13.52;64.33984
59987;BME280;46181;51.498;5.392;2022-11-04T07:47:46;100389.3;;;13.65;64.2793
59987;BME280;46181;51.498;5.392;2022-11-04T07:52:16;100392.9;;;13.78;64.19531
59987;BME280;46181;51.498;5.392;2022-11-04T07:56:45;100392.4;;;13.87;64.26563
59987;BME280;46181;51.498;5.392;2022-11-04T08:01:17;100394.9;;;13.98;64.29395
59987;BME280;46181;51.498;5.392;2022-11-04T08:05:46;100397.5;;;14.09;64.36426
59987;BME280;46181;51.498;5.392;2022-11-04T08:10:16;100395.6;;;14.23;64.36426
59987;BME280;46181;51.498;5.392;2022-11-04T08:14:46;100405.5;;;14.36;64.37207
59987;BME280;46181;51.498;5.392;2022-11-04T08:19:16;100414.2;;;14.43;64.44922
59987;BME280;46181;51.498;5.392;2022-11-04T08:23:46;100416.8;;;14.44;64.53125
59987;BME280;46181;51.498;5.392;2022-11-04T08:28:16;100421.2;;;14.41;64.63867
59987;BME280;46181;51.498;5.392;2022-11-04T08:32:46;100429.2;;;14.44;64.83594
59987;BME280;46181;51.498;5.392;2022-11-04T08:37:16;100435.2;;;14.43;64.7207
59987;BME280;46181;51.498;5.392;2022-11-04T08:41:46;100447;;;14.39;65.02148
59987;BME280;46181;51.498;5.392;2022-11-04T08:46:17;100447.5;;;14.46;65.06641
59987;BME280;46181;51.498;5.392;2022-11-04T08:50:46;100446.2;;;14.57;65.02441
59987;BME280;46181;51.498;5.392;2022-11-04T08:55:17;100454;;;14.59;64.88086
59987;BME280;46181;51.498;5.392;2022-11-04T08:59:46;100458.8;;;14.6;64.78125
59987;BME280;46181;51.498;5.392;2022-11-04T09:04:18;100456.4;;;14.51;64.85742
59987;BME280;46181;51.498;5.392;2022-11-04T09:08:46;100467.1;;;14.5;64.93555
59987;BME280;46181;51.498;5.392;2022-11-04T09:13:16;100480.4;;;14.58;65.03809
59987;BME280;46181;51.498;5.392;2022-11-04T09:17:46;100489.5;;;14.68;65.2002
59987;BME280;46181;51.498;5.392;2022-11-04T09:22:16;100492.1;;;14.91;65.2334
59987;BME280;46181;51.498;5.392;2022-11-04T09:26:46;100497.2;;;15.17;64.95605
59987;BME280;46181;51.498;5.392;2022-11-04T09:31:17;100500.5;;;15.39;64.72656
59987;BME280;46181;51.498;5.392;2022-11-04T09:35:46;100509.8;;;15.64;64.45508
59987;BME280;46181;51.498;5.392;2022-11-04T09:40:19;100522.2;;;15.82;64.29883
59987;BME280;46181;51.498;5.392;2022-11-04T09:44:52;100530.8;;;15.94;64.1582
59987;BME280;46181;51.498;5.392;2022-11-04T09:49:17;100533.4;;;16.12;63.90039
59987;BME280;46181;51.498;5.392;2022-11-04T09:53:49;100536.2;;;16.2;63.86621
59987;BME280;46181;51.498;5.392;2022-11-04T09:58:17;100541.9;;;16.37;63.7998
59987;BME280;46181;51.498;5.392;2022-11-04T10:02:53;100538;;;16.5;63.61328
59987;BME280;46181;51.498;5.392;2022-11-04T10:07:28;100544;;;16.58;63.41992
59987;BME280;46181;51.498;5.392;2022-11-04T10:11:50;100542.8;;;16.7;63.34668
59987;BME280;46181;51.498;5.392;2022-11-04T10:16:37;100548.6;;;16.78;63.5293
59987;BME280;46181;51.498;5.392;2022-11-04T10:20:54;100558.1;;;16.98;62.86035
59987;BME280;46181;51.498;5.392;2022-11-04T10:25:22;100558;;;17.09;62.7168
59987;BME280;46181;51.498;5.392;2022-11-04T10:29:50;100557.5;;;17.12;62.38965
59987;BME280;46181;51.498;5.392;2022-11-04T10:34:25;100569.5;;;16.98;62.32422
59987;BME280;46181;51.498;5.392;2022-11-04T10:38:47;100574.8;;;16.95;62.5957
59987;BME280;46181;51.498;5.392;2022-11-04T10:43:20;100586.3;;;16.94;62.49023
59987;BME280;46181;51.498;5.392;2022-11-04T10:47:53;100597.2;;;16.98;62.58594
59987;BME280;46181;51.498;5.392;2022-11-04T10:52:17;100606.5;;;17.15;62.29102
59987;BME280;46181;51.498;5.392;2022-11-04T10:56:49;100608.7;;;17.3;62.02734
59987;BME280;46181;51.498;5.392;2022-11-04T11:01:29;100603.6;;;17.3;61.65039
59987;BME280;46181;51.498;5.392;2022-11-04T11:05:46;100597.3;;;17.4;61.03613
59987;BME280;46181;51.498;5.392;2022-11-04T11:10:24;100592.3;;;17.4;60.8418
59987;BME280;46181;51.498;5.392;2022-11-04T11:14:47;100589.3;;;17.39;60.34863
59987;BME280;46181;51.498;5.392;2022-11-04T11:19:30;100602.5;;;17.2;60.64355
59987;BME280;46181;51.498;5.392;2022-11-04T11:23:47;100606.3;;;17.11;60.04785
59987;BME280;46181;51.498;5.392;2022-11-04T11:28:23;100610.8;;;17.02;60.10449
59987;BME280;46181;51.498;5.392;2022-11-04T11:32:47;100604.3;;;16.99;59.95117
59987;BME280;46181;51.498;5.392;2022-11-04T11:37:27;100606.6;;;16.96;60.10742
59987;BME280;46181;51.498;5.392;2022-11-04T11:41:59;100607.1;;;16.98;59.53906
59987;BME280;46181;51.498;5.392;2022-11-04T11:46:19;100603.5;;;17.11;59.2832
59987;BME280;46181;51.498;5.392;2022-11-04T11:50:46;100597.5;;;17.29;59.00977
59987;BME280;46181;51.498;5.392;2022-11-04T11:55:20;100598.1;;;17.36;58.59668
59987;BME280;46181;51.498;5.392;2022-11-04T11:59:50;100609.8;;;17.34;58.50293
59987;BME280;46181;51.498;5.392;2022-11-04T12:04:16;100619.5;;;17.29;58.20898
59987;BME280;46181;51.498;5.392;2022-11-04T12:09:03;100623.9;;;17.2;58.75781
59987;BME280;46181;51.498;5.392;2022-11-04T12:13:22;100627.2;;;17.33;58.48926
59987;BME280;46181;51.498;5.392;2022-11-04T12:18:01;100635.6;;;17.26;58.19336
59987;BME280;46181;51.498;5.392;2022-11-04T12:22:22;100641.8;;;17.32;57.96191
59987;BME280;46181;51.498;5.392;2022-11-04T12:26:49;100642;;;17.38;57.14648
59987;BME280;46181;51.498;5.392;2022-11-04T12:31:26;100642.4;;;17.23;57.09375
59987;BME280;46181;51.498;5.392;2022-11-04T12:35:55;100649.8;;;17.2;56.96387
59987;BME280;46181;51.498;5.392;2022-11-04T12:40:24;100661.8;;;17.13;56.64551
59987;BME280;46181;51.498;5.392;2022-11-04T12:44:49;100676.4;;;17.18;56.31934
59987;BME280;46181;51.498;5.392;2022-11-04T12:49:30;100680.5;;;17.37;56.69922
59987;BME280;46181;51.498;5.392;2022-11-04T12:54:02;100676;;;17.69;56.64844
59987;BME280;46181;51.498;5.392;2022-11-04T12:58:28;100668.2;;;17.95;55.69727
59987;BME280;46181;51.498;5.392;2022-11-04T13:02:48;100669.2;;;18.14;55.52539
59987;BME280;46181;51.498;5.392;2022-11-04T13:07:19;100678.9;;;18.34;55.25195
59987;BME280;46181;51.498;5.392;2022-11-04T13:11:49;100688.6;;;18.43;55.09082
59987;BME280;46181;51.498;5.392;2022-11-04T13:16:18;100692.2;;;18.59;54.70996
59987;BME280;46181;51.498;5.392;2022-11-04T13:20:50;100703.7;;;18.73;54.31445
59987;BME280;46181;51.498;5.392;2022-11-04T13:25:23;100701.7;;;18.69;54.02148
59987;BME280;46181;51.498;5.392;2022-11-04T13:29:46;100708.8;;;18.6;53.32129
59987;BME280;46181;51.498;5.392;2022-11-04T13:34:23;100720.1;;;18.3;52.91895
59987;BME280;46181;51.498;5.392;2022-11-04T13:38:49;100738.4;;;18.18;53.27246
59987;BME280;46181;51.498;5.392;2022-11-04T13:43:30;100742.2;;;18.1;53.82324
59987;BME280;46181;51.498;5.392;2022-11-04T13:47:53;100754.5;;;18.2;53.67578
59987;BME280;46181;51.498;5.392;2022-11-04T13:52:17;100757.4;;;18.22;53.66699
59987;BME280;46181;51.498;5.392;2022-11-04T13:56:47;100760.6;;;18.16;53.69434
59987;BME280;46181;51.498;5.392;2022-11-04T14:01:33;100766.3;;;17.97;54.38184
59987;BME280;46181;51.498;5.392;2022-11-04T14:06:07;100771.6;;;17.92;54.43262
59987;BME280;46181;51.498;5.392;2022-11-04T14:10:40;100777.1;;;17.9;54.54395
59987;BME280;46181;51.498;5.392;2022-11-04T14:14:47;100775.8;;;17.97;54.54102
59987;BME280;46181;51.498;5.392;2022-11-04T14:23:48;100783.8;;;18.03;54.29688
59987;BME280;46181;51.498;5.392;2022-11-04T14:28:29;100796.9;;;17.93;54.30762
59987;BME280;46181;51.498;5.392;2022-11-04T14:32:50;100809.5;;;17.94;54.04492
59987;BME280;46181;51.498;5.392;2022-11-04T14:37:26;100815.2;;;17.82;54.14551
59987;BME280;46181;51.498;5.392;2022-11-04T14:41:58;100817.8;;;17.75;54.19531
59987;BME280;46181;51.498;5.392;2022-11-04T14:46:20;100824.5;;;17.77;54.32129
59987;BME280;46181;51.498;5.392;2022-11-04T14:50:50;100834.4;;;17.7;54.39453
59987;BME280;46181;51.498;5.392;2022-11-04T14:55:20;100835.5;;;17.64;54.38574
59987;BME280;46181;51.498;5.392;2022-11-04T14:59:46;100851.2;;;17.63;54.37402
59987;BME280;46181;51.498;5.392;2022-11-04T15:04:22;100862.5;;;17.54;54.69531
59987;BME280;46181;51.498;5.392;2022-11-04T15:08:51;100869.5;;;17.56;54.8584
59987;BME280;46181;51.498;5.392;2022-11-04T15:13:18;100872.5;;;17.55;54.94727
59987;BME280;46181;51.498;5.392;2022-11-04T15:17:46;100877.2;;;17.5;55.22754
59987;BME280;46181;51.498;5.392;2022-11-04T15:22:16;100883.6;;;17.44;55.20996
59987;BME280;46181;51.498;5.392;2022-11-04T15:26:47;100893.3;;;17.32;54.45117
59987;BME280;46181;51.498;5.392;2022-11-04T15:31:24;100903.8;;;17.11;54.20703
59987;BME280;46181;51.498;5.392;2022-11-04T15:35:46;100911.2;;;17.04;53.91406
59987;BME280;46181;51.498;5.392;2022-11-04T15:40:17;100908.9;;;16.88;53.8584
59987;BME280;46181;51.498;5.392;2022-11-04T15:44:47;100908.9;;;16.76;53.94727
59987;BME280;46181;51.498;5.392;2022-11-04T15:49:27;100908.4;;;16.55;54.24219
59987;BME280;46181;51.498;5.392;2022-11-04T15:53:56;100910.2;;;16.49;54.08594
59987;BME280;46181;51.498;5.392;2022-11-04T15:58:16;100908.9;;;16.44;54.12598
59987;BME280;46181;51.498;5.392;2022-11-04T16:02:48;100921.9;;;16.38;54.24219
59987;BME280;46181;51.498;5.392;2022-11-04T16:07:33;100933.1;;;16.21;54.51855
59987;BME280;46181;51.498;5.392;2022-11-04T16:11:56;100941.5;;;16.27;54.29883
59987;BME280;46181;51.498;5.392;2022-11-04T16:16:25;100940.4;;;16.14;54.60254
59987;BME280;46181;51.498;5.392;2022-11-04T16:20:47;100948.7;;;16.14;54.70605
59987;BME280;46181;51.498;5.392;2022-11-04T16:25:27;100956.8;;;16.03;55.06738
59987;BME280;46181;51.498;5.392;2022-11-04T16:29:49;100966.5;;;16.04;55.12598
59987;BME280;46181;51.498;5.392;2022-11-04T16:34:19;100970.7;;;15.89;55.4502
59987;BME280;46181;51.498;5.392;2022-11-04T16:38:46;100980.4;;;15.85;55.69531
59987;BME280;46181;51.498;5.392;2022-11-04T16:43:17;100978.5;;;15.79;55.9043
59987;BME280;46181;51.498;5.392;2022-11-04T16:47:47;100983.3;;;15.77;55.98145
59987;BME280;46181;51.498;5.392;2022-11-04T16:52:21;100998.1;;;15.79;56.2002
59987;BME280;46181;51.498;5.392;2022-11-04T16:56:46;100998.1;;;15.85;56.07129
59987;BME280;46181;51.498;5.392;2022-11-04T17:01:16;101006.4;;;15.92;56.01074
59987;BME280;46181;51.498;5.392;2022-11-04T17:05:46;101016.4;;;15.94;55.91211
59987;BME280;46181;51.498;5.392;2022-11-04T17:10:21;101018.3;;;15.88;56.07617
59987;BME280;46181;51.498;5.392;2022-11-04T17:14:46;101024;;;15.93;56.11523
59987;BME280;46181;51.498;5.392;2022-11-04T17:19:17;101036.7;;;15.89;56.30566
59987;BME280;46181;51.498;5.392;2022-11-04T17:23:46;101038.7;;;15.85;56.45898
59987;BME280;46181;51.498;5.392;2022-11-04T17:28:16;101046.4;;;15.83;56.54883
59987;BME280;46181;51.498;5.392;2022-11-04T17:32:46;101048.8;;;15.84;56.58301
59987;BME280;46181;51.498;5.392;2022-11-04T17:37:16;101057;;;15.81;56.58008
59987;BME280;46181;51.498;5.392;2022-11-04T17:41:46;101072.3;;;15.81;56.59082
59987;BME280;46181;51.498;5.392;2022-11-04T17:46:16;101071.3;;;15.83;56.45801
59987;BME280;46181;51.498;5.392;2022-11-04T17:50:47;101073.7;;;15.78;56.43945
59987;BME280;46181;51.498;5.392;2022-11-04T17:55:17;101076.8;;;15.74;56.4668
59987;BME280;46181;51.498;5.392;2022-11-04T17:59:46;101078.6;;;15.63;56.64844
59987;BME280;46181;51.498;5.392;2022-11-04T18:04:21;101087.2;;;15.51;56.83691
59987;BME280;46181;51.498;5.392;2022-11-04T18:08:46;101087.3;;;15.5;56.91504
59987;BME280;46181;51.498;5.392;2022-11-04T18:13:16;101088;;;15.43;56.99707
59987;BME280;46181;51.498;5.392;2022-11-04T18:17:49;101096.8;;;15.38;57.16211
59987;BME280;46181;51.498;5.392;2022-11-04T18:22:16;101104.5;;;15.37;57.2168
59987;BME280;46181;51.498;5.392;2022-11-04T18:26:46;101112.4;;;15.3;57.32227
59987;BME280;46181;51.498;5.392;2022-11-04T18:31:21;101118.3;;;15.23;57.49512
59987;BME280;46181;51.498;5.392;2022-11-04T18:35:46;101125.4;;;15.2;57.55859
59987;BME280;46181;51.498;5.392;2022-11-04T18:40:17;101127.3;;;15.12;57.6748
59987;BME280;46181;51.498;5.392;2022-11-04T18:44:46;101127;;;15.06;57.89355
59987;BME280;46181;51.498;5.392;2022-11-04T18:49:17;101136.3;;;14.97;57.99512
59987;BME280;46181;51.498;5.392;2022-11-04T18:53:46;101135.3;;;14.85;58.03613
59987;BME280;46181;51.498;5.392;2022-11-04T18:58:16;101140;;;14.74;58.16895
59987;BME280;46181;51.498;5.392;2022-11-04T19:02:46;101145.6;;;14.62;58.3584
59987;BME280;46181;51.498;5.392;2022-11-04T19:07:16;101144.8;;;14.46;58.59961
59987;BME280;46181;51.498;5.392;2022-11-04T19:11:47;101152.5;;;14.32;58.85254
59987;BME280;46181;51.498;5.392;2022-11-04T19:16:17;101153.6;;;14.21;58.94043
59987;BME280;46181;51.498;5.392;2022-11-04T19:20:46;101161.7;;;14.09;59.12891
59987;BME280;46181;51.498;5.392;2022-11-04T19:25:17;101164.3;;;13.96;59.24805
59987;BME280;46181;51.498;5.392;2022-11-04T19:29:46;101166.3;;;13.87;59.42773
59987;BME280;46181;51.498;5.392;2022-11-04T19:34:16;101173.1;;;13.76;59.75293
59987;BME280;46181;51.498;5.392;2022-11-04T19:38:46;101190.4;;;13.68;59.86621
59987;BME280;46181;51.498;5.392;2022-11-04T19:43:16;101189.4;;;13.59;60.00098
59987;BME280;46181;51.498;5.392;2022-11-04T19:47:46;101189.8;;;13.51;59.9668
59987;BME280;46181;51.498;5.392;2022-11-04T19:52:16;101194;;;13.41;60.0791
59987;BME280;46181;51.498;5.392;2022-11-04T19:56:46;101203.8;;;13.31;60.22363
59987;BME280;46181;51.498;5.392;2022-11-04T20:01:16;101210.5;;;13.24;60.33789
59987;BME280;46181;51.498;5.392;2022-11-04T20:05:49;101217.1;;;13.17;60.6123
59987;BME280;46181;51.498;5.392;2022-11-04T20:10:17;101229.9;;;13.14;60.54004
59987;BME280;46181;51.498;5.392;2022-11-04T20:14:46;101229.6;;;13.11;60.58105
59987;BME280;46181;51.498;5.392;2022-11-04T20:19:17;101235.5;;;13;60.52148
59987;BME280;46181;51.498;5.392;2022-11-04T20:23:46;101233.5;;;12.94;60.58008
59987;BME280;46181;51.498;5.392;2022-11-04T20:28:16;101235.9;;;12.89;60.69824
59987;BME280;46181;51.498;5.392;2022-11-04T20:32:46;101243.3;;;12.84;60.73535
59987;BME280;46181;51.498;5.392;2022-11-04T20:37:16;101250.8;;;12.78;60.76172
59987;BME280;46181;51.498;5.392;2022-11-04T20:41:46;101267;;;12.72;60.74219
59987;BME280;46181;51.498;5.392;2022-11-04T20:46:18;101268.2;;;12.62;60.76172
59987;BME280;46181;51.498;5.392;2022-11-04T20:50:47;101272.5;;;12.57;60.64258
59987;BME280;46181;51.498;5.392;2022-11-04T20:55:17;101282.7;;;12.49;60.87988
59987;BME280;46181;51.498;5.392;2022-11-04T20:59:46;101293.2;;;12.45;60.90723
59987;BME280;46181;51.498;5.392;2022-11-04T21:04:17;101298.8;;;12.4;60.90137
59987;BME280;46181;51.498;5.392;2022-11-04T21:08:46;101309;;;12.36;60.92871
59987;BME280;46181;51.498;5.392;2022-11-04T21:13:16;101308;;;12.35;60.89453
59987;BME280;46181;51.498;5.392;2022-11-04T21:17:46;101304.1;;;12.32;60.73145
59987;BME280;46181;51.498;5.392;2022-11-04T21:22:16;101316.9;;;12.34;60.79004
59987;BME280;46181;51.498;5.392;2022-11-04T21:26:46;101328;;;12.36;60.79297
59987;BME280;46181;51.498;5.392;2022-11-04T21:31:17;101332;;;12.39;60.71875
59987;BME280;46181;51.498;5.392;2022-11-04T21:35:47;101332.3;;;12.46;60.78418
59987;BME280;46181;51.498;5.392;2022-11-04T21:40:17;101342.5;;;12.56;60.73145
59987;BME280;46181;51.498;5.392;2022-11-04T21:44:46;101344.4;;;12.59;60.72461
59987;BME280;46181;51.498;5.392;2022-11-04T21:49:16;101353.5;;;12.54;60.7627
59987;BME280;46181;51.498;5.392;2022-11-04T21:53:46;101363.6;;;12.48;61.02344
59987;BME280;46181;51.498;5.392;2022-11-04T21:58:16;101369.1;;;12.54;61.34863
59987;BME280;46181;51.498;5.392;2022-11-04T22:02:47;101382.3;;;12.65;61.48926
59987;BME280;46181;51.498;5.392;2022-11-04T22:07:16;101375.3;;;12.8;61.45313
59987;BME280;46181;51.498;5.392;2022-11-04T22:11:46;101368.7;;;12.94;61.28125
59987;BME280;46181;51.498;5.392;2022-11-04T22:16:23;101370.7;;;12.98;61.20703
59987;BME280;46181;51.498;5.392;2022-11-04T22:20:46;101377;;;13.09;61.11035
59987;BME280;46181;51.498;5.392;2022-11-04T22:25:17;101380.9;;;13.19;61.04492
59987;BME280;46181;51.498;5.392;2022-11-04T22:29:46;101388;;;13.33;60.98438
59987;BME280;46181;51.498;5.392;2022-11-04T22:34:16;101390.9;;;13.42;60.85059
59987;BME280;46181;51.498;5.392;2022-11-04T22:38:47;101392.4;;;13.39;60.58691
59987;BME280;46181;51.498;5.392;2022-11-04T22:43:16;101397.5;;;13.24;60.76953
59987;BME280;46181;51.498;5.392;2022-11-04T22:47:46;101393.6;;;13.19;61.10156
59987;BME280;46181;51.498;5.392;2022-11-04T22:52:16;101385.3;;;13.17;61.3125
59987;BME280;46181;51.498;5.392;2022-11-04T22:56:46;101392.9;;;13.17;61.48242
59987;BME280;46181;51.498;5.392;2022-11-04T23:01:17;101397.6;;;13.13;61.5791
59987;BME280;46181;51.498;5.392;2022-11-04T23:05:46;101396.6;;;13.06;61.60352
59987;BME280;46181;51.498;5.392;2022-11-04T23:10:17;101400.1;;;12.89;61.65918